createdAt,value
2023-01-27T00:00:31.692Z,12.10
2023-01-27T00:04:34.717Z,12.57
2023-01-27T00:08:38.836Z,13.35
2023-01-27T00:12:59.188Z,12.68
2023-01-27T00:17:02.220Z,11.90
2023-01-27T00:21:22.782Z,12.90
2023-01-27T00:25:26.977Z,12.00
2023-01-27T00:29:29.899Z,12.05
2023-01-27T00:33:32.743Z,11.80
2023-01-27T00:37:35.962Z,12.77
2023-01-27T00:41:43.886Z,11.45
2023-01-27T00:45:51.206Z,12.88
2023-01-27T00:49:54.010Z,12.02
2023-01-27T00:53:57.159Z,12.40
2023-01-27T00:58:01.329Z,10.48
2023-01-27T01:02:04.249Z,11.23
2023-01-27T01:06:09.354Z,11.18
2023-01-27T01:10:12.843Z,12.57
2023-01-27T01:14:17.238Z,10.63
2023-01-27T01:18:20.002Z,10.05
2023-01-27T01:22:22.803Z,8.45
2023-01-27T01:26:25.561Z,6.82
2023-01-27T01:30:31.829Z,7.95
2023-01-27T01:34:34.624Z,6.35
2023-01-27T01:38:37.518Z,8.05
2023-01-27T01:42:54.370Z,7.18
2023-01-27T01:46:59.289Z,6.03
2023-01-27T01:51:08.370Z,6.63
2023-01-27T01:55:11.581Z,6.53
2023-01-27T01:59:18.568Z,6.10
2023-01-27T02:03:23.721Z,6.03
2023-01-27T02:07:32.481Z,5.85
2023-01-27T02:11:35.308Z,5.60
2023-01-27T02:15:38.770Z,5.75
2023-01-27T02:19:52.346Z,5.57
2023-01-27T02:24:00.894Z,6.07
2023-01-27T02:28:08.160Z,6.45
2023-01-27T02:32:23.547Z,7.13
2023-01-27T02:36:30.701Z,7.20
2023-01-27T02:40:35.444Z,6.55
2023-01-27T02:44:39.697Z,7.32
2023-01-27T02:48:42.581Z,7.63
2023-01-27T02:52:45.436Z,7.63
2023-01-27T02:56:48.550Z,8.25
2023-01-27T03:00:54.360Z,8.25
2023-01-27T03:04:57.245Z,8.40
2023-01-27T03:09:00.528Z,8.20
2023-01-27T03:13:04.232Z,8.73
2023-01-27T03:17:26.167Z,8.75
2023-01-27T03:21:28.906Z,9.38
2023-01-27T03:25:32.053Z,8.80
2023-01-27T03:29:53.038Z,8.77
2023-01-27T03:33:57.320Z,10.60
2023-01-27T03:38:32.017Z,9.18
2023-01-27T03:42:52.515Z,8.13
2023-01-27T03:46:55.355Z,8.95
2023-01-27T03:51:00.217Z,9.18
2023-01-27T03:55:03.068Z,9.00
2023-01-27T03:59:05.880Z,8.30
2023-01-27T04:03:26.208Z,7.88
2023-01-27T04:07:30.329Z,8.95
2023-01-27T04:11:50.431Z,8.75
2023-01-27T04:15:55.444Z,10.02
2023-01-27T04:19:58.394Z,9.73
2023-01-27T04:24:03.791Z,7.88
2023-01-27T04:28:06.624Z,9.70
2023-01-27T04:32:10.811Z,9.82
2023-01-27T04:36:14.063Z,9.05
2023-01-27T04:40:19.335Z,9.02
2023-01-27T04:44:22.122Z,10.65
2023-01-27T04:48:24.907Z,10.00
2023-01-27T04:52:27.753Z,9.93
2023-01-27T04:56:33.358Z,9.27
2023-01-27T05:00:36.183Z,10.18
2023-01-27T05:04:39.530Z,9.90
2023-01-27T05:08:42.394Z,10.15
2023-01-27T05:12:46.587Z,9.60
2023-01-27T05:16:49.389Z,10.30
2023-01-27T05:20:52.361Z,11.50
2023-01-27T05:24:55.137Z,9.73
2023-01-27T05:29:00.177Z,11.43
2023-01-27T05:33:02.885Z,11.70
2023-01-27T05:37:05.666Z,10.32
2023-01-27T05:41:10.267Z,10.32
2023-01-27T05:45:14.801Z,10.38
2023-01-27T05:49:17.874Z,10.80
2023-01-27T05:53:20.701Z,10.43
2023-01-27T05:57:23.457Z,11.25
2023-01-27T06:01:30.269Z,10.57
2023-01-27T06:05:33.071Z,10.40
2023-01-27T06:09:35.827Z,11.00
2023-01-27T06:13:39.263Z,11.43
2023-01-27T06:17:43.428Z,11.98
2023-01-27T06:21:46.205Z,10.43
2023-01-27T06:25:50.063Z,11.15
2023-01-27T06:29:53.383Z,10.82
2023-01-27T06:33:57.642Z,12.55
2023-01-27T06:38:01.657Z,12.50
2023-01-27T06:42:04.826Z,11.07
2023-01-27T06:46:07.830Z,11.90
2023-01-27T06:50:13.359Z,12.00
2023-01-27T06:54:16.664Z,11.55
2023-01-27T06:58:19.459Z,12.27
2023-01-27T07:02:22.331Z,11.77
2023-01-27T07:06:26.492Z,12.35
2023-01-27T07:10:29.360Z,11.32
2023-01-27T07:14:32.199Z,11.75
2023-01-27T07:18:35.219Z,12.68
2023-01-27T07:22:39.390Z,11.65
2023-01-27T07:26:43.784Z,13.15
2023-01-27T07:30:46.590Z,13.05
2023-01-27T07:34:49.380Z,12.57
2023-01-27T07:38:53.522Z,12.48
2023-01-27T07:42:59.571Z,13.55
2023-01-27T07:47:03.380Z,13.23
2023-01-27T07:51:06.252Z,15.35
2023-01-27T07:55:11.171Z,14.27
2023-01-27T07:59:14.336Z,15.77
2023-01-27T08:03:23.266Z,14.93
2023-01-27T08:07:26.053Z,14.40
2023-01-27T08:11:30.250Z,14.55
2023-01-27T08:15:33.063Z,15.70
2023-01-27T08:19:35.869Z,14.55
2023-01-27T08:23:38.721Z,13.75
2023-01-27T08:27:42.859Z,13.88
2023-01-27T08:31:45.792Z,12.85
2023-01-27T08:35:49.339Z,14.50
2023-01-27T08:39:52.177Z,15.15
2023-01-27T08:43:56.683Z,14.65
2023-01-27T08:47:59.536Z,14.75
2023-01-27T08:52:02.339Z,12.65
2023-01-27T08:56:07.554Z,13.02
2023-01-27T09:00:14.097Z,13.27
2023-01-27T09:04:17.108Z,11.60
2023-01-27T09:08:19.920Z,12.13
2023-01-27T09:12:22.690Z,11.30
2023-01-27T09:16:26.941Z,13.73
2023-01-27T09:20:31.907Z,13.50
2023-01-27T09:24:34.696Z,14.43
2023-01-27T09:28:37.500Z,14.55
2023-01-27T09:32:42.243Z,12.70
2023-01-27T09:36:48.396Z,14.07
2023-01-27T09:45:25.204Z,13.00
2023-01-27T09:49:43.223Z,12.45
2023-01-27T09:54:04.433Z,12.63
2023-01-27T09:58:17.843Z,12.50
2023-01-27T10:02:34.992Z,12.25
2023-01-27T10:06:56.812Z,12.20
2023-01-27T10:11:13.010Z,12.48
2023-01-27T10:15:32.611Z,11.32
2023-01-27T10:19:50.213Z,11.18
2023-01-27T10:24:05.638Z,11.60
2023-01-27T10:28:13.073Z,9.75
2023-01-27T10:32:26.680Z,11.93
2023-01-27T10:36:30.898Z,11.93
2023-01-27T10:40:41.982Z,12.15
2023-01-27T10:45:01.000Z,12.65
2023-01-27T10:49:07.876Z,11.27
2023-01-27T10:53:14.962Z,10.45
2023-01-27T10:57:25.636Z,9.90
2023-01-27T11:01:33.469Z,9.50
2023-01-27T11:05:40.043Z,9.80
2023-01-27T11:09:49.940Z,9.82
2023-01-27T11:14:02.654Z,10.13
2023-01-27T11:18:12.414Z,10.63
2023-01-27T11:22:21.173Z,10.73
2023-01-27T11:26:32.535Z,10.98
2023-01-27T11:30:43.771Z,9.18
2023-01-27T11:34:55.818Z,9.55
2023-01-27T11:38:59.098Z,9.20
2023-01-27T11:43:03.191Z,10.30
2023-01-27T11:47:09.531Z,9.95
2023-01-27T11:51:17.487Z,10.02
2023-01-27T11:55:22.645Z,9.98
2023-01-27T11:59:29.792Z,10.65
2023-01-27T12:03:49.496Z,10.40
2023-01-27T12:07:55.823Z,9.63
2023-01-27T12:12:11.734Z,9.50
2023-01-27T12:16:15.415Z,9.93
2023-01-27T12:20:31.955Z,10.77
2023-01-27T12:28:42.605Z,11.25
2023-01-27T12:32:48.319Z,9.98
2023-01-27T12:36:53.175Z,11.00
2023-01-27T12:41:00.434Z,10.13
2023-01-27T12:45:22.968Z,10.45
2023-01-27T12:49:31.551Z,9.70
2023-01-27T12:53:35.723Z,10.15
2023-01-27T12:57:44.781Z,11.23
2023-01-27T13:02:00.700Z,9.85
2023-01-27T13:06:03.710Z,10.25
2023-01-27T13:10:19.871Z,10.43
2023-01-27T13:14:22.930Z,10.30
2023-01-27T13:18:26.197Z,10.07
2023-01-27T13:22:33.238Z,10.45
2023-01-27T13:26:38.442Z,11.13
2023-01-27T13:30:44.148Z,11.60
2023-01-27T13:34:50.475Z,10.05
2023-01-27T13:39:00.364Z,9.60
2023-01-27T13:43:12.176Z,9.48
2023-01-27T13:47:19.334Z,9.60
2023-01-27T13:51:23.418Z,10.02
2023-01-27T13:55:39.930Z,10.70
2023-01-27T13:59:57.680Z,10.95
2023-01-27T14:04:28.511Z,10.65
2023-01-27T14:08:45.796Z,10.73
2023-01-27T14:13:07.452Z,9.80
2023-01-27T14:17:26.572Z,10.65
2023-01-27T14:21:46.955Z,11.35
2023-01-27T14:26:00.354Z,10.82
2023-01-27T14:30:15.835Z,10.43
2023-01-27T14:34:33.598Z,9.77
2023-01-27T14:38:44.633Z,11.52
2023-01-27T14:42:58.716Z,11.18
2023-01-27T14:47:11.725Z,10.50
2023-01-27T14:51:26.168Z,11.30
2023-01-27T14:55:41.416Z,11.70
2023-01-27T14:59:54.131Z,11.55
2023-01-27T15:04:19.632Z,10.85
2023-01-27T15:08:31.724Z,11.25
2023-01-27T15:12:52.858Z,11.00
2023-01-27T15:17:12.275Z,11.60
2023-01-27T15:21:38.931Z,10.05
2023-01-27T15:25:48.183Z,9.52
2023-01-27T15:29:51.019Z,10.73
2023-01-27T15:33:57.242Z,10.70
2023-01-27T15:42:12.854Z,11.07
2023-01-27T15:46:24.921Z,11.57
2023-01-27T15:50:30.388Z,10.75
2023-01-27T15:54:34.551Z,12.77
2023-01-27T15:58:41.303Z,11.52
2023-01-27T16:02:47.875Z,11.68
2023-01-27T16:06:53.046Z,12.50
2023-01-27T16:11:25.102Z,12.73
2023-01-27T16:15:36.124Z,12.18
2023-01-27T16:19:44.234Z,12.98
2023-01-27T16:23:53.734Z,12.05
2023-01-27T16:28:02.777Z,12.68
2023-01-27T16:32:17.038Z,13.35
2023-01-27T16:36:24.161Z,12.88
2023-01-27T16:40:28.906Z,13.18
2023-01-27T16:44:40.753Z,14.27
2023-01-27T16:48:47.343Z,14.98
2023-01-27T16:52:50.505Z,14.52
2023-01-27T16:56:53.372Z,14.68
2023-01-27T17:00:58.559Z,14.73
2023-01-27T17:05:06.286Z,14.63
2023-01-27T17:09:21.508Z,13.90
2023-01-27T17:13:29.906Z,15.30
2023-01-27T17:17:36.105Z,15.65
2023-01-27T17:21:43.623Z,14.00
2023-01-27T17:25:46.571Z,14.00
2023-01-27T17:29:50.692Z,14.35
2023-01-27T17:34:02.005Z,14.35
2023-01-27T17:38:14.224Z,14.50
2023-01-27T17:42:18.528Z,14.98
2023-01-27T17:46:23.015Z,15.75
2023-01-27T17:50:38.743Z,14.60
2023-01-27T17:54:43.247Z,16.15
2023-01-27T17:58:47.422Z,16.08
2023-01-27T18:02:54.782Z,15.82
2023-01-27T18:06:57.639Z,16.27
2023-01-27T18:11:12.256Z,15.18
2023-01-27T18:15:38.800Z,14.82
2023-01-27T18:19:50.713Z,15.25
2023-01-27T18:23:55.712Z,15.50
2023-01-27T18:28:00.755Z,15.95
2023-01-27T18:32:16.693Z,14.88
2023-01-27T18:36:22.634Z,14.95
2023-01-27T18:40:29.312Z,16.80
2023-01-27T18:44:37.088Z,15.57
2023-01-27T18:48:40.243Z,14.45
2023-01-27T18:52:43.600Z,14.52
2023-01-27T18:56:46.391Z,13.95
2023-01-27T19:00:53.239Z,13.15
2023-01-27T19:04:56.090Z,13.65
2023-01-27T19:08:58.818Z,12.65
2023-01-27T19:13:03.030Z,13.45
2023-01-27T19:17:14.389Z,12.30
2023-01-27T19:21:39.656Z,14.80
2023-01-27T19:25:43.592Z,14.32
2023-01-27T19:29:46.634Z,14.20
2023-01-27T19:33:51.618Z,15.18
2023-01-27T19:37:56.895Z,14.95
2023-01-27T19:41:59.903Z,14.07
2023-01-27T19:46:03.101Z,14.48
2023-01-27T19:50:11.339Z,13.65
2023-01-27T19:54:14.343Z,14.57
2023-01-27T19:58:22.855Z,13.70
2023-01-27T20:02:26.139Z,14.23
2023-01-27T20:06:32.404Z,13.25
2023-01-27T20:10:35.266Z,14.38
2023-01-27T20:14:38.371Z,13.65
2023-01-27T20:18:41.401Z,13.80
2023-01-27T20:22:46.011Z,13.27
2023-01-27T20:26:48.929Z,14.13
2023-01-27T20:30:51.752Z,13.95
2023-01-27T20:34:59.025Z,13.80
2023-01-27T20:39:03.424Z,13.48
2023-01-27T20:43:06.214Z,13.95
2023-01-27T20:47:09.207Z,13.90
2023-01-27T20:51:14.513Z,14.07
2023-01-27T20:55:19.985Z,12.98
2023-01-27T20:59:22.837Z,14.13
2023-01-27T21:03:25.681Z,13.23
2023-01-27T21:07:28.529Z,13.48
2023-01-27T21:11:32.926Z,13.27
2023-01-27T21:15:35.739Z,12.80
2023-01-27T21:19:38.626Z,13.95
2023-01-27T21:23:41.392Z,13.30
2023-01-27T21:27:45.606Z,13.85
2023-01-27T21:31:48.518Z,13.30
2023-01-27T21:35:55.193Z,12.27
2023-01-27T21:39:57.959Z,13.15
2023-01-27T21:44:19.628Z,13.00
2023-01-27T21:48:22.384Z,13.07
2023-01-27T21:52:26.907Z,12.73
2023-01-27T21:56:29.733Z,12.20
2023-01-27T22:00:34.388Z,12.20
2023-01-27T22:04:37.176Z,12.73
2023-01-27T22:08:39.997Z,11.38
2023-01-27T22:12:42.930Z,12.68
2023-01-27T22:16:47.118Z,14.35
2023-01-27T22:20:49.948Z,13.90
2023-01-27T22:24:52.746Z,13.65
2023-01-27T22:28:55.536Z,14.35
2023-01-27T22:32:59.763Z,13.32
2023-01-27T22:37:02.635Z,13.85
2023-01-27T22:41:05.589Z,13.95
2023-01-27T22:45:10.222Z,13.93
2023-01-27T22:49:14.399Z,12.82
2023-01-27T22:53:17.213Z,13.35
2023-01-27T22:57:20.036Z,12.82
2023-01-27T23:01:22.924Z,14.25
2023-01-27T23:05:27.121Z,14.73
2023-01-27T23:09:29.898Z,13.77
2023-01-27T23:13:32.935Z,13.05
2023-01-27T23:17:35.754Z,13.52
2023-01-27T23:21:40.018Z,12.73
2023-01-27T23:25:44.459Z,13.52
2023-01-27T23:29:47.279Z,14.20
2023-01-27T23:33:50.034Z,15.75
2023-01-27T23:37:54.148Z,13.98
2023-01-27T23:41:56.907Z,14.05
2023-01-27T23:46:00.128Z,14.25
2023-01-27T23:50:02.992Z,14.52
2023-01-27T23:54:07.211Z,15.43
2023-01-27T23:58:10.317Z,15.35
